createdAt,value
2023-02-11T00:01:35.475Z,1.00
2023-02-11T00:04:05.330Z,0.90
2023-02-11T00:06:34.981Z,1.00
2023-02-11T00:09:04.041Z,1.00
2023-02-11T00:11:32.060Z,1.10
2023-02-11T00:14:02.709Z,1.10
2023-02-11T00:16:31.884Z,1.20
2023-02-11T00:19:01.751Z,1.20
2023-02-11T00:21:30.378Z,1.30
2023-02-11T00:23:59.819Z,1.30
2023-02-11T00:26:30.182Z,1.30
2023-02-11T00:28:58.282Z,1.30
2023-02-11T00:31:28.031Z,1.30
2023-02-11T00:33:56.288Z,1.30
2023-02-11T00:36:26.596Z,1.30
2023-02-11T00:38:55.583Z,1.30
2023-02-11T00:41:24.153Z,1.40
2023-02-11T00:43:52.921Z,1.40
2023-02-11T00:46:24.620Z,1.40
2023-02-11T00:48:57.487Z,1.40
2023-02-11T00:51:26.154Z,1.50
2023-02-11T00:53:54.337Z,1.50
2023-02-11T00:56:22.409Z,1.50
2023-02-11T00:58:50.338Z,1.50
2023-02-11T01:01:18.656Z,1.50
2023-02-11T01:03:46.746Z,1.50
2023-02-11T01:06:16.474Z,1.50
2023-02-11T01:08:45.959Z,1.50
2023-02-11T01:11:16.520Z,1.40
2023-02-11T01:13:44.680Z,1.50
2023-02-11T01:16:13.019Z,1.50
2023-02-11T01:18:41.934Z,1.50
2023-02-11T01:21:10.101Z,1.50
2023-02-11T01:23:41.641Z,1.50
2023-02-11T01:26:09.736Z,1.50
2023-02-11T01:28:38.152Z,1.50
2023-02-11T01:31:08.855Z,1.40
2023-02-11T01:33:36.945Z,1.40
2023-02-11T01:36:09.719Z,1.40
2023-02-11T01:38:38.301Z,1.40
2023-02-11T01:41:14.587Z,1.40
2023-02-11T01:43:55.293Z,1.30
2023-02-11T01:46:35.439Z,1.30
2023-02-11T01:49:12.002Z,1.30
2023-02-11T01:51:48.332Z,1.30
2023-02-11T01:54:37.317Z,1.30
2023-02-11T01:57:51.318Z,1.30
2023-02-11T02:00:50.285Z,1.30
2023-02-11T02:03:41.370Z,1.20
2023-02-11T02:07:06.018Z,1.20
2023-02-11T02:10:05.463Z,1.20
2023-02-11T02:12:34.730Z,1.30
2023-02-11T02:15:38.470Z,1.20
2023-02-11T02:18:36.949Z,1.20
2023-02-11T02:21:31.125Z,1.20
2023-02-11T02:25:02.310Z,1.20
2023-02-11T02:31:23.814Z,1.10
2023-02-11T02:33:59.611Z,1.10
2023-02-11T02:36:36.878Z,1.20
2023-02-11T02:39:10.123Z,1.10
2023-02-11T02:41:40.325Z,1.20
2023-02-11T02:44:09.269Z,1.10
2023-02-11T02:46:43.449Z,1.10
2023-02-11T02:49:15.750Z,1.20
2023-02-11T02:52:14.398Z,1.20
2023-02-11T02:55:03.220Z,1.30
2023-02-11T02:57:39.194Z,1.30
2023-02-11T03:00:17.412Z,1.40
2023-02-11T03:02:58.457Z,1.50
2023-02-11T03:05:35.752Z,1.50
2023-02-11T03:08:09.464Z,1.60
2023-02-11T03:10:41.832Z,1.60
2023-02-11T03:13:10.358Z,1.60
2023-02-11T03:15:43.289Z,1.50
2023-02-11T03:18:16.303Z,1.60
2023-02-11T03:20:48.676Z,1.60
2023-02-11T03:23:20.145Z,1.70
2023-02-11T03:25:54.568Z,1.60
2023-02-11T03:28:30.555Z,1.60
2023-02-11T03:31:10.806Z,1.70
2023-02-11T03:33:48.045Z,1.70
2023-02-11T03:36:24.070Z,1.70
2023-02-11T03:38:56.896Z,1.70
2023-02-11T03:41:26.028Z,1.70
2023-02-11T03:43:57.533Z,1.60
2023-02-11T03:46:31.787Z,1.60
2023-02-11T03:49:05.160Z,1.60
2023-02-11T03:51:35.272Z,1.50
2023-02-11T03:54:06.785Z,1.50
2023-02-11T03:56:40.672Z,1.30
2023-02-11T03:59:09.284Z,1.20
2023-02-11T04:01:37.175Z,1.10
2023-02-11T04:04:05.631Z,1.00
2023-02-11T04:06:35.656Z,1.00
2023-02-11T04:09:03.678Z,0.90
2023-02-11T04:11:31.610Z,0.80
2023-02-11T04:13:59.748Z,0.70
2023-02-11T04:16:55.822Z,0.50
2023-02-11T04:19:23.911Z,0.40
2023-02-11T04:21:53.140Z,0.30
2023-02-11T04:24:21.163Z,0.30
2023-02-11T04:26:49.199Z,0.30
2023-02-11T04:29:18.967Z,0.20
2023-02-11T04:31:47.104Z,0.20
2023-02-11T04:34:15.320Z,0.20
2023-02-11T04:36:43.445Z,0.20
2023-02-11T04:39:12.774Z,0.30
2023-02-11T04:41:40.750Z,0.30
2023-02-11T04:44:08.649Z,0.30
2023-02-11T04:46:36.666Z,0.30
2023-02-11T04:49:04.745Z,0.30
2023-02-11T04:51:32.928Z,0.40
2023-02-11T04:54:00.817Z,0.40
2023-02-11T04:56:30.111Z,0.50
2023-02-11T04:58:58.144Z,0.40
2023-02-11T05:01:26.175Z,0.40
2023-02-11T05:03:54.250Z,0.40
2023-02-11T05:06:22.332Z,0.40
2023-02-11T05:08:50.985Z,0.50
2023-02-11T05:11:21.344Z,0.50
2023-02-11T05:13:50.850Z,0.40
2023-02-11T05:16:18.925Z,0.40
2023-02-11T05:18:47.130Z,0.30
2023-02-11T05:21:17.901Z,0.30
2023-02-11T05:23:47.998Z,0.30
2023-02-11T05:26:16.582Z,0.30
2023-02-11T05:28:45.031Z,0.30
2023-02-11T05:31:14.957Z,0.30
2023-02-11T05:33:43.617Z,0.30
2023-02-11T05:36:13.949Z,0.30
2023-02-11T05:38:43.291Z,0.20
2023-02-11T05:41:13.038Z,0.20
2023-02-11T05:43:40.997Z,0.20
2023-02-11T05:46:09.321Z,0.20
2023-02-11T05:48:38.880Z,0.20
2023-02-11T05:51:06.989Z,0.20
2023-02-11T05:53:36.163Z,0.20
2023-02-11T05:56:04.211Z,0.20
2023-02-11T05:58:32.234Z,0.20
2023-02-11T06:01:00.224Z,0.20
2023-02-11T06:03:28.384Z,0.10
2023-02-11T06:05:57.767Z,0.10
2023-02-11T06:08:25.733Z,0.10
2023-02-11T06:10:53.849Z,0.20
2023-02-11T06:13:21.824Z,0.20
2023-02-11T06:15:57.600Z,0.20
2023-02-11T06:18:25.762Z,0.20
2023-02-11T06:20:53.705Z,0.20
2023-02-11T06:23:23.124Z,0.20
2023-02-11T06:25:51.914Z,0.10
2023-02-11T06:28:20.182Z,0.10
2023-02-11T06:30:48.252Z,0.10
2023-02-11T06:33:17.117Z,0.10
2023-02-11T06:35:45.443Z,0.20
2023-02-11T06:38:13.363Z,0.10
2023-02-11T06:40:47.714Z,0.10
2023-02-11T06:43:15.609Z,0.10
2023-02-11T06:45:47.437Z,0.20
2023-02-11T06:48:15.582Z,0.20
2023-02-11T06:50:43.445Z,0.30
2023-02-11T06:53:11.598Z,0.20
2023-02-11T06:55:39.477Z,0.20
2023-02-11T06:58:08.772Z,0.10
2023-02-11T07:00:37.505Z,0.10
2023-02-11T07:03:11.549Z,0.10
2023-02-11T07:05:43.132Z,0.00
2023-02-11T07:08:11.080Z,0.00
2023-02-11T07:10:39.049Z,0.00
2023-02-11T07:13:08.368Z,-0.10
2023-02-11T07:15:37.900Z,-0.10
2023-02-11T07:18:06.195Z,-0.10
2023-02-11T07:20:34.842Z,0.00
2023-02-11T07:23:02.983Z,0.00
2023-02-11T07:25:34.035Z,0.00
2023-02-11T07:28:02.128Z,0.00
2023-02-11T07:30:31.592Z,0.10
2023-02-11T07:32:59.481Z,0.20
2023-02-11T07:35:27.485Z,0.20
2023-02-11T07:37:55.504Z,0.30
2023-02-11T07:40:23.455Z,0.40
2023-02-11T07:42:51.470Z,0.60
2023-02-11T07:45:19.535Z,0.70
2023-02-11T07:47:49.133Z,0.60
2023-02-11T07:50:18.132Z,0.70
2023-02-11T07:52:49.045Z,0.60
2023-02-11T07:55:17.143Z,0.60
2023-02-11T07:57:45.425Z,0.70
2023-02-11T08:00:14.796Z,0.70
2023-02-11T08:02:42.911Z,0.70
2023-02-11T08:05:12.365Z,0.70
2023-02-11T08:07:40.411Z,0.70
2023-02-11T08:10:08.920Z,1.00
2023-02-11T08:12:36.919Z,1.20
2023-02-11T08:15:05.145Z,1.40
2023-02-11T08:17:33.177Z,1.50
2023-02-11T08:20:01.547Z,1.60
2023-02-11T08:22:32.444Z,1.60
2023-02-11T08:25:00.487Z,1.60
2023-02-11T08:27:28.643Z,1.70
2023-02-11T08:29:56.738Z,1.80
2023-02-11T08:32:25.538Z,2.00
2023-02-11T08:34:54.018Z,2.10
2023-02-11T08:37:22.789Z,2.10
2023-02-11T08:39:52.240Z,2.20
2023-02-11T08:42:20.354Z,2.30
2023-02-11T08:44:48.296Z,2.40
2023-02-11T08:47:16.314Z,2.40
2023-02-11T08:49:44.304Z,2.40
2023-02-11T08:52:12.323Z,2.60
2023-02-11T08:54:40.336Z,2.80
2023-02-11T08:57:09.767Z,2.80
2023-02-11T08:59:39.991Z,2.80
2023-02-11T09:02:08.538Z,3.00
2023-02-11T09:04:37.017Z,3.10
2023-02-11T09:07:05.180Z,3.30
2023-02-11T09:09:33.320Z,3.30
2023-02-11T09:12:01.577Z,3.30
2023-02-11T09:14:30.884Z,3.40
2023-02-11T09:16:58.841Z,3.50
2023-02-11T09:19:26.822Z,3.40
2023-02-11T09:21:54.793Z,3.50
2023-02-11T09:24:23.248Z,3.70
2023-02-11T09:26:51.233Z,3.90
2023-02-11T09:29:19.413Z,3.90
2023-02-11T09:31:49.836Z,4.00
2023-02-11T09:34:17.971Z,4.20
2023-02-11T09:36:46.109Z,4.40
2023-02-11T09:39:17.938Z,4.50
2023-02-11T09:42:11.684Z,4.50
2023-02-11T09:44:40.441Z,4.70
2023-02-11T09:47:26.737Z,4.70
2023-02-11T09:49:59.918Z,4.70
2023-02-11T09:52:35.842Z,4.80
2023-02-11T09:55:07.756Z,4.70
2023-02-11T09:57:37.818Z,4.80
2023-02-11T10:00:19.565Z,4.80
2023-02-11T10:03:12.974Z,4.80
2023-02-11T10:06:00.475Z,5.00
2023-02-11T10:08:37.131Z,5.00
2023-02-11T10:11:26.063Z,5.00
2023-02-11T10:14:07.708Z,5.00
2023-02-11T10:16:51.301Z,4.70
2023-02-11T10:19:35.541Z,4.70
2023-02-11T10:22:12.521Z,4.70
2023-02-11T10:24:55.202Z,4.80
2023-02-11T10:27:28.758Z,4.80
2023-02-11T10:30:02.730Z,4.80
2023-02-11T10:32:39.083Z,4.80
2023-02-11T10:35:18.221Z,4.90
2023-02-11T10:37:46.532Z,5.10
2023-02-11T10:40:16.694Z,5.10
2023-02-11T10:42:49.624Z,4.90
2023-02-11T10:45:23.930Z,4.90
2023-02-11T10:47:52.322Z,5.00
2023-02-11T10:50:37.101Z,5.10
2023-02-11T10:53:20.039Z,5.10
2023-02-11T10:55:53.740Z,5.20
2023-02-11T10:58:27.360Z,5.20
2023-02-11T11:00:58.351Z,5.30
2023-02-11T11:03:28.567Z,5.20
2023-02-11T11:06:01.675Z,5.20
2023-02-11T11:08:40.644Z,5.30
2023-02-11T11:11:11.374Z,5.50
2023-02-11T11:13:41.764Z,5.60
2023-02-11T11:16:24.974Z,5.60
2023-02-11T11:18:55.477Z,5.80
2023-02-11T11:21:27.963Z,5.70
2023-02-11T11:24:01.304Z,5.90
2023-02-11T11:26:42.970Z,6.00
2023-02-11T11:29:17.116Z,6.20
2023-02-11T11:31:51.416Z,6.50
2023-02-11T11:34:31.641Z,6.40
2023-02-11T11:37:03.244Z,6.40
2023-02-11T11:39:34.675Z,6.50
2023-02-11T11:42:05.411Z,6.40
2023-02-11T11:44:35.912Z,6.30
2023-02-11T11:47:36.923Z,6.50
2023-02-11T11:50:23.964Z,6.50
2023-02-11T11:53:00.426Z,6.50
2023-02-11T11:55:34.334Z,6.60
2023-02-11T11:58:02.398Z,6.80
2023-02-11T12:00:36.321Z,6.80
2023-02-11T12:03:43.039Z,6.90
2023-02-11T12:06:23.267Z,7.00
2023-02-11T12:09:05.249Z,7.10
2023-02-11T12:11:41.922Z,7.10
2023-02-11T12:14:23.626Z,7.00
2023-02-11T12:17:02.617Z,7.20
2023-02-11T12:19:56.802Z,7.20
2023-02-11T12:22:36.944Z,7.10
2023-02-11T12:25:28.137Z,7.10
2023-02-11T12:28:08.969Z,7.10
2023-02-11T12:30:51.009Z,7.20
2023-02-11T12:33:34.359Z,7.20
2023-02-11T12:36:08.242Z,7.00
2023-02-11T12:38:58.876Z,7.10
2023-02-11T12:42:00.329Z,7.20
2023-02-11T12:44:40.395Z,7.20
2023-02-11T12:47:17.175Z,7.00
2023-02-11T12:50:02.988Z,6.90
2023-02-11T12:52:46.642Z,6.80
2023-02-11T12:55:22.883Z,6.90
2023-02-11T12:57:53.576Z,6.90
2023-02-11T13:00:24.968Z,6.90
2023-02-11T13:02:57.426Z,6.90
2023-02-11T13:05:29.534Z,7.00
2023-02-11T13:08:04.501Z,6.90
2023-02-11T13:10:35.777Z,7.00
2023-02-11T13:13:19.609Z,7.00
2023-02-11T13:15:52.086Z,7.00
2023-02-11T13:18:37.123Z,7.00
2023-02-11T13:21:25.638Z,7.00
2023-02-11T13:24:02.948Z,7.00
2023-02-11T13:26:36.084Z,7.20
2023-02-11T13:29:18.342Z,7.10
2023-02-11T13:31:55.376Z,7.10
2023-02-11T13:34:48.091Z,7.00
2023-02-11T13:37:23.615Z,7.00
2023-02-11T13:40:02.093Z,7.10
2023-02-11T13:42:31.072Z,7.10
2023-02-11T13:45:00.646Z,7.10
2023-02-11T13:47:32.414Z,7.00
2023-02-11T13:50:03.015Z,7.00
2023-02-11T13:52:33.669Z,6.90
2023-02-11T13:55:08.817Z,7.00
2023-02-11T13:57:39.365Z,7.00
2023-02-11T14:00:50.654Z,7.00
2023-02-11T14:04:01.074Z,7.00
2023-02-11T14:07:02.413Z,7.00
2023-02-11T14:09:41.664Z,6.90
2023-02-11T14:12:32.587Z,7.00
2023-02-11T14:15:06.719Z,6.90
2023-02-11T14:17:36.838Z,6.90
2023-02-11T14:20:51.440Z,6.90
2023-02-11T14:23:27.322Z,6.90
2023-02-11T14:26:24.778Z,6.90
2023-02-11T14:29:01.192Z,7.00
2023-02-11T14:31:36.159Z,7.00
2023-02-11T14:34:37.998Z,7.00
2023-02-11T14:37:20.535Z,7.00
2023-02-11T14:39:58.624Z,7.10
2023-02-11T14:42:30.955Z,7.20
2023-02-11T14:45:06.821Z,7.10
2023-02-11T14:47:42.749Z,7.10
2023-02-11T14:50:19.496Z,7.10
2023-02-11T14:52:51.090Z,7.10
2023-02-11T14:55:30.732Z,7.10
2023-02-11T14:58:09.869Z,7.10
2023-02-11T15:00:37.804Z,7.10
2023-02-11T15:03:05.793Z,7.10
2023-02-11T15:05:33.744Z,7.10
2023-02-11T15:08:04.922Z,7.10
2023-02-11T15:10:36.671Z,7.00
2023-02-11T15:13:06.344Z,7.00
2023-02-11T15:15:36.477Z,7.00
2023-02-11T15:18:06.268Z,7.00
2023-02-11T15:20:36.633Z,7.00
2023-02-11T15:23:09.925Z,7.00
2023-02-11T15:25:45.761Z,7.00
2023-02-11T15:28:27.019Z,7.00
2023-02-11T15:31:00.115Z,7.00
2023-02-11T15:33:30.333Z,7.00
2023-02-11T15:35:59.625Z,7.00
2023-02-11T15:38:31.023Z,7.10
2023-02-11T15:41:02.130Z,7.10
2023-02-11T15:43:43.733Z,7.10
2023-02-11T15:46:15.321Z,7.10
2023-02-11T15:48:45.133Z,7.10
2023-02-11T15:51:22.328Z,7.00
2023-02-11T15:53:56.723Z,7.00
2023-02-11T15:56:29.927Z,7.00
2023-02-11T15:59:00.834Z,6.90
2023-02-11T16:01:34.396Z,6.90
2023-02-11T16:04:03.375Z,6.90
2023-02-11T16:06:38.793Z,6.90
2023-02-11T16:09:25.384Z,6.90
2023-02-11T16:11:58.030Z,6.90
2023-02-11T16:14:32.533Z,6.90
2023-02-11T16:17:04.697Z,6.80
2023-02-11T16:19:34.633Z,6.80
2023-02-11T16:22:09.649Z,6.80
2023-02-11T16:24:40.960Z,6.80
2023-02-11T16:27:19.773Z,6.80
2023-02-11T16:29:52.066Z,6.80
2023-02-11T16:32:21.879Z,6.70
2023-02-11T16:34:50.757Z,6.70
2023-02-11T16:37:19.089Z,6.70
2023-02-11T16:39:48.504Z,6.70
2023-02-11T16:42:16.709Z,6.70
2023-02-11T16:44:44.655Z,6.70
2023-02-11T16:47:26.909Z,6.70
2023-02-11T16:49:56.783Z,6.70
2023-02-11T16:52:25.467Z,6.70
2023-02-11T16:54:55.366Z,6.60
2023-02-11T16:57:26.923Z,6.60
2023-02-11T16:59:56.080Z,6.60
2023-02-11T17:02:27.844Z,6.60
2023-02-11T17:04:57.267Z,6.60
2023-02-11T17:07:25.295Z,6.50
2023-02-11T17:09:54.813Z,6.50
2023-02-11T17:12:25.474Z,6.30
2023-02-11T17:14:54.207Z,6.30
2023-02-11T17:17:23.768Z,6.30
2023-02-11T17:19:52.380Z,6.30
2023-02-11T17:22:21.246Z,6.30
2023-02-11T17:24:49.456Z,6.30
2023-02-11T17:27:19.393Z,6.30
2023-02-11T17:29:50.312Z,6.30
2023-02-11T17:32:18.755Z,6.20
2023-02-11T17:34:46.943Z,6.20
2023-02-11T17:37:15.736Z,6.20
2023-02-11T17:39:44.739Z,6.10
2023-02-11T17:42:14.679Z,6.10
2023-02-11T17:44:45.171Z,6.20
2023-02-11T17:47:13.925Z,6.00
2023-02-11T17:49:42.083Z,6.10
2023-02-11T17:52:14.981Z,6.10
2023-02-11T17:54:45.333Z,6.20
2023-02-11T17:57:14.709Z,6.10
2023-02-11T17:59:44.431Z,6.00
2023-02-11T18:02:13.599Z,6.00
2023-02-11T18:04:43.394Z,6.00
2023-02-11T18:07:11.707Z,6.10
2023-02-11T18:09:43.123Z,6.00
2023-02-11T18:12:11.891Z,6.00
2023-02-11T18:14:41.534Z,5.90
2023-02-11T18:17:10.986Z,5.90
2023-02-11T18:19:39.412Z,5.90
2023-02-11T18:22:10.540Z,5.90
2023-02-11T18:24:38.559Z,5.90
2023-02-11T18:27:06.584Z,5.90
2023-02-11T18:29:35.371Z,5.80
2023-02-11T18:32:03.467Z,5.80
2023-02-11T18:34:33.140Z,5.80
2023-02-11T18:37:01.278Z,5.80
2023-02-11T18:39:29.648Z,5.80
2023-02-11T18:41:58.936Z,5.80
2023-02-11T18:44:28.108Z,5.80
2023-02-11T18:46:57.786Z,5.80
2023-02-11T18:49:26.256Z,5.90
2023-02-11T18:51:58.341Z,5.90
2023-02-11T18:54:26.614Z,6.00
2023-02-11T18:56:54.979Z,6.00
2023-02-11T18:59:23.270Z,6.00
2023-02-11T19:01:52.139Z,6.00
2023-02-11T19:04:20.492Z,6.10
2023-02-11T19:06:50.148Z,6.10
2023-02-11T19:09:21.033Z,6.10
2023-02-11T19:11:50.567Z,6.10
2023-02-11T19:14:22.069Z,6.10
2023-02-11T19:16:52.776Z,6.10
2023-02-11T19:19:24.414Z,6.10
2023-02-11T19:21:52.573Z,6.20
2023-02-11T19:24:22.717Z,6.20
2023-02-11T19:26:52.437Z,6.20
2023-02-11T19:29:20.780Z,6.10
2023-02-11T19:31:56.539Z,6.10
2023-02-11T19:34:24.955Z,6.00
2023-02-11T19:36:56.818Z,6.10
2023-02-11T19:39:27.081Z,6.20
2023-02-11T19:41:55.287Z,6.10
2023-02-11T19:44:26.372Z,6.10
2023-02-11T19:46:54.935Z,6.10
2023-02-11T19:49:25.860Z,6.10
2023-02-11T19:51:56.434Z,6.10
2023-02-11T19:54:31.167Z,6.10
2023-02-11T19:56:59.734Z,6.10
2023-02-11T19:59:39.289Z,6.10
2023-02-11T20:02:16.721Z,6.00
2023-02-11T20:04:45.002Z,6.00
2023-02-11T20:07:13.288Z,6.10
2023-02-11T20:09:43.028Z,6.10
2023-02-11T20:12:12.140Z,6.00
2023-02-11T20:14:40.864Z,6.00
2023-02-11T20:17:09.238Z,6.00
2023-02-11T20:19:37.439Z,6.00
2023-02-11T20:22:05.907Z,6.10
2023-02-11T20:24:34.007Z,6.00
2023-02-11T20:27:03.436Z,6.00
2023-02-11T20:29:31.836Z,6.00
2023-02-11T20:32:00.237Z,6.00
2023-02-11T20:34:29.579Z,6.00
2023-02-11T20:36:57.887Z,6.00
2023-02-11T20:39:27.199Z,6.00
2023-02-11T20:41:56.567Z,5.90
2023-02-11T20:44:27.121Z,5.90
2023-02-11T20:46:55.715Z,5.90
2023-02-11T20:49:25.239Z,6.00
2023-02-11T20:51:53.893Z,5.90
2023-02-11T20:54:23.356Z,6.00
2023-02-11T20:56:57.020Z,5.90
2023-02-11T20:59:27.111Z,6.00
2023-02-11T21:01:57.431Z,5.90
2023-02-11T21:04:27.237Z,5.90
2023-02-11T21:06:57.181Z,5.90
2023-02-11T21:09:27.709Z,5.90
2023-02-11T21:11:56.549Z,5.90
2023-02-11T21:14:27.998Z,5.90
2023-02-11T21:16:56.427Z,5.90
2023-02-11T21:19:24.446Z,5.90
2023-02-11T21:21:52.506Z,5.80
2023-02-11T21:24:20.401Z,5.80
2023-02-11T21:26:48.418Z,5.80
2023-02-11T21:29:16.408Z,5.70
2023-02-11T21:31:46.191Z,5.70
2023-02-11T21:34:17.838Z,5.60
2023-02-11T21:36:45.991Z,5.60
2023-02-11T21:39:14.832Z,5.50
2023-02-11T21:41:43.088Z,5.50
2023-02-11T21:44:11.246Z,5.50
2023-02-11T21:46:39.470Z,5.50
2023-02-11T21:49:08.886Z,5.50
2023-02-11T21:51:40.964Z,5.60
2023-02-11T21:54:08.946Z,5.60
2023-02-11T21:56:37.345Z,5.70
2023-02-11T21:59:05.424Z,5.70
2023-02-11T22:01:36.845Z,5.70
2023-02-11T22:04:05.493Z,5.70
2023-02-11T22:06:35.598Z,5.60
2023-02-11T22:09:05.126Z,5.70
2023-02-11T22:11:33.214Z,5.60
2023-02-11T22:14:01.153Z,5.60
2023-02-11T22:16:30.375Z,5.60
2023-02-11T22:18:59.442Z,5.60
2023-02-11T22:21:30.702Z,5.60
2023-02-11T22:24:00.164Z,5.60
2023-02-11T22:26:31.517Z,5.50
2023-02-11T22:29:00.523Z,5.40
2023-02-11T22:31:32.932Z,5.30
2023-02-11T22:34:02.569Z,5.30
2023-02-11T22:36:32.804Z,5.20
2023-02-11T22:39:05.035Z,5.20
2023-02-11T22:41:33.346Z,5.20
2023-02-11T22:44:01.577Z,5.30
2023-02-11T22:46:29.608Z,5.20
2023-02-11T22:48:57.937Z,5.30
2023-02-11T22:51:28.604Z,5.30
2023-02-11T22:53:57.704Z,5.40
2023-02-11T22:56:27.663Z,5.40
2023-02-11T22:58:58.216Z,5.40
2023-02-11T23:01:26.440Z,5.40
2023-02-11T23:03:54.573Z,5.40
2023-02-11T23:06:22.695Z,5.40
2023-02-11T23:08:50.721Z,5.40
2023-02-11T23:11:20.842Z,5.40
2023-02-11T23:13:51.585Z,5.40
2023-02-11T23:16:21.907Z,5.40
2023-02-11T23:18:51.338Z,5.40
2023-02-11T23:21:23.152Z,5.50
2023-02-11T23:23:55.902Z,5.40
2023-02-11T23:26:24.005Z,5.30
2023-02-11T23:28:53.403Z,5.20
2023-02-11T23:31:24.027Z,5.20
2023-02-11T23:33:52.412Z,5.20
2023-02-11T23:36:21.922Z,5.10
2023-02-11T23:38:50.179Z,5.10
2023-02-11T23:41:18.549Z,5.10
2023-02-11T23:43:50.585Z,5.10
2023-02-11T23:46:21.838Z,5.10
2023-02-11T23:48:50.140Z,5.10
2023-02-11T23:51:18.879Z,5.10
2023-02-11T23:53:49.111Z,5.20
2023-02-11T23:56:19.504Z,5.10
2023-02-11T23:58:49.778Z,5.10
